<?xml version="1.0" encoding="UTF-8" standalone="no" ?>
<gpx xmlns="http://www.topografix.com/GPX/1/1" xmlns:xsi="http://www.w3.org/2001/XMLSchema-instance" xsi:schemaLocation="http://www.topografix.com/GPX/1/1 http://www.topografix.com/GPX/1/1/gpx.xsd" version="1.1" creator="VisuGPX - https://www.visugpx.com">
  <metadata>
    <name>2017-05-01 LUBINE, COL DE LA HINGRIE &amp;#8211; COL DES NOIRCEUX</name>
    <desc><![CDATA[2017-05-01 LUBINE, COL DE LA HINGRIE – COL DES NOIRCEUX]]></desc>
  </metadata>
  <trk>
    <name><![CDATA[OR-8036558--Lubine:2017-05-01 LUBINE, COL DE LA HINGRIE – COL DES NOIRCEUX]]></name>
    <trkseg>
      <trkpt lat="48.30763" lon="7.18839">
        <ele>635</ele>
        <time>2017-10-22T21:19:47Z</time>
      </trkpt>
      <trkpt lat="48.30732" lon="7.18965">
        <ele>661</ele>
        <time>2017-10-22T21:21:47Z</time>
      </trkpt>
      <trkpt lat="48.30705" lon="7.19088">
        <ele>680</ele>
        <time>2017-10-22T21:23:47Z</time>
      </trkpt>
      <trkpt lat="48.30696" lon="7.19206">
        <ele>699</ele>
        <time>2017-10-22T21:25:47Z</time>
      </trkpt>
      <trkpt lat="48.30692" lon="7.19326">
        <ele>716</ele>
        <time>2017-10-22T21:27:47Z</time>
      </trkpt>
      <trkpt lat="48.30687" lon="7.1944">
        <ele>738</ele>
        <time>2017-10-22T21:29:47Z</time>
      </trkpt>
      <trkpt lat="48.3065" lon="7.19534">
        <ele>754</ele>
        <time>2017-10-22T21:31:47Z</time>
      </trkpt>
      <trkpt lat="48.30586" lon="7.19616">
        <ele>757</ele>
        <time>2017-10-22T21:33:47Z</time>
      </trkpt>
      <trkpt lat="48.30501" lon="7.19412">
        <ele>774</ele>
        <time>2017-10-22T21:35:47Z</time>
      </trkpt>
      <trkpt lat="48.30462" lon="7.1934">
        <ele>776</ele>
        <time>2017-10-22T21:37:47Z</time>
      </trkpt>
      <trkpt lat="48.30346" lon="7.19269">
        <ele>783</ele>
        <time>2017-10-22T21:39:47Z</time>
      </trkpt>
      <trkpt lat="48.30325" lon="7.19241">
        <ele>785</ele>
        <time>2017-10-22T21:41:47Z</time>
      </trkpt>
      <trkpt lat="48.30313" lon="7.19183">
        <ele>784</ele>
        <time>2017-10-22T21:43:47Z</time>
      </trkpt>
      <trkpt lat="48.30272" lon="7.19037">
        <ele>788</ele>
        <time>2017-10-22T21:45:47Z</time>
      </trkpt>
      <trkpt lat="48.30221" lon="7.18795">
        <ele>795</ele>
        <time>2017-10-22T21:47:47Z</time>
      </trkpt>
      <trkpt lat="48.30231" lon="7.1858">
        <ele>808</ele>
        <time>2017-10-22T21:49:47Z</time>
      </trkpt>
      <trkpt lat="48.30157" lon="7.18442">
        <ele>806</ele>
        <time>2017-10-22T21:51:47Z</time>
      </trkpt>
      <trkpt lat="48.30126" lon="7.18256">
        <ele>802</ele>
        <time>2017-10-22T21:53:47Z</time>
      </trkpt>
      <trkpt lat="48.30071" lon="7.1817">
        <ele>802</ele>
        <time>2017-10-22T21:55:47Z</time>
      </trkpt>
      <trkpt lat="48.30027" lon="7.18038">
        <ele>797</ele>
        <time>2017-10-22T21:57:47Z</time>
      </trkpt>
      <trkpt lat="48.29995" lon="7.18222">
        <ele>812</ele>
        <time>2017-10-22T21:59:47Z</time>
      </trkpt>
      <trkpt lat="48.30014" lon="7.18449">
        <ele>814</ele>
        <time>2017-10-22T22:01:47Z</time>
      </trkpt>
      <trkpt lat="48.30149" lon="7.18703">
        <ele>803</ele>
        <time>2017-10-22T22:03:47Z</time>
      </trkpt>
      <trkpt lat="48.30154" lon="7.18831">
        <ele>789</ele>
        <time>2017-10-22T22:05:47Z</time>
      </trkpt>
      <trkpt lat="48.30111" lon="7.19237">
        <ele>775</ele>
        <time>2017-10-22T22:07:47Z</time>
      </trkpt>
      <trkpt lat="48.30058" lon="7.19395">
        <ele>772</ele>
        <time>2017-10-22T22:09:47Z</time>
      </trkpt>
      <trkpt lat="48.30027" lon="7.19446">
        <ele>774</ele>
        <time>2017-10-22T22:11:47Z</time>
      </trkpt>
      <trkpt lat="48.29962" lon="7.19484">
        <ele>771</ele>
        <time>2017-10-22T22:13:47Z</time>
      </trkpt>
      <trkpt lat="48.29923" lon="7.19545">
        <ele>778</ele>
        <time>2017-10-22T22:15:47Z</time>
      </trkpt>
      <trkpt lat="48.29859" lon="7.19545">
        <ele>765</ele>
        <time>2017-10-22T22:17:47Z</time>
      </trkpt>
      <trkpt lat="48.29828" lon="7.19552">
        <ele>759</ele>
        <time>2017-10-22T22:19:47Z</time>
      </trkpt>
      <trkpt lat="48.29786" lon="7.19686">
        <ele>771</ele>
        <time>2017-10-22T22:21:47Z</time>
      </trkpt>
      <trkpt lat="48.29645" lon="7.19761">
        <ele>732</ele>
        <time>2017-10-22T22:23:47Z</time>
      </trkpt>
      <trkpt lat="48.29641" lon="7.19805">
        <ele>728</ele>
        <time>2017-10-22T22:25:47Z</time>
      </trkpt>
      <trkpt lat="48.29649" lon="7.19887">
        <ele>718</ele>
        <time>2017-10-22T22:27:47Z</time>
      </trkpt>
      <trkpt lat="48.29644" lon="7.20052">
        <ele>690</ele>
        <time>2017-10-22T22:29:47Z</time>
      </trkpt>
      <trkpt lat="48.2964" lon="7.20092">
        <ele>692</ele>
        <time>2017-10-22T22:31:47Z</time>
      </trkpt>
      <trkpt lat="48.29582" lon="7.20069">
        <ele>670</ele>
        <time>2017-10-22T22:33:47Z</time>
      </trkpt>
      <trkpt lat="48.29344" lon="7.20268">
        <ele>656</ele>
        <time>2017-10-22T22:35:47Z</time>
      </trkpt>
      <trkpt lat="48.29388" lon="7.20381">
        <ele>667</ele>
        <time>2017-10-22T22:37:47Z</time>
      </trkpt>
      <trkpt lat="48.29376" lon="7.20467">
        <ele>675</ele>
        <time>2017-10-22T22:39:47Z</time>
      </trkpt>
      <trkpt lat="48.29265" lon="7.20494">
        <ele>666</ele>
        <time>2017-10-22T22:41:47Z</time>
      </trkpt>
      <trkpt lat="48.29276" lon="7.20509">
        <ele>674</ele>
        <time>2017-10-22T22:43:47Z</time>
      </trkpt>
      <trkpt lat="48.29176" lon="7.20561">
        <ele>696</ele>
        <time>2017-10-22T22:45:47Z</time>
      </trkpt>
      <trkpt lat="48.29049" lon="7.20504">
        <ele>669</ele>
        <time>2017-10-22T22:47:47Z</time>
      </trkpt>
      <trkpt lat="48.29012" lon="7.20686">
        <ele>684</ele>
        <time>2017-10-22T22:49:47Z</time>
      </trkpt>
      <trkpt lat="48.28954" lon="7.20737">
        <ele>670</ele>
        <time>2017-10-22T22:51:47Z</time>
      </trkpt>
      <trkpt lat="48.28944" lon="7.2077">
        <ele>665</ele>
        <time>2017-10-22T22:53:47Z</time>
      </trkpt>
      <trkpt lat="48.28807" lon="7.20782">
        <ele>631</ele>
        <time>2017-10-22T22:55:47Z</time>
      </trkpt>
      <trkpt lat="48.2876" lon="7.20728">
        <ele>622</ele>
        <time>2017-10-22T22:57:47Z</time>
      </trkpt>
      <trkpt lat="48.28738" lon="7.20649">
        <ele>602</ele>
        <time>2017-10-22T22:59:47Z</time>
      </trkpt>
      <trkpt lat="48.2869" lon="7.20841">
        <ele>595</ele>
        <time>2017-10-22T23:01:47Z</time>
      </trkpt>
      <trkpt lat="48.28871" lon="7.20891">
        <ele>615</ele>
        <time>2017-10-22T23:03:47Z</time>
      </trkpt>
      <trkpt lat="48.28912" lon="7.2092">
        <ele>618</ele>
        <time>2017-10-22T23:05:47Z</time>
      </trkpt>
      <trkpt lat="48.28918" lon="7.20958">
        <ele>619</ele>
        <time>2017-10-22T23:07:47Z</time>
      </trkpt>
      <trkpt lat="48.28867" lon="7.2116">
        <ele>603</ele>
        <time>2017-10-22T23:09:47Z</time>
      </trkpt>
      <trkpt lat="48.28823" lon="7.2125">
        <ele>592</ele>
        <time>2017-10-22T23:11:47Z</time>
      </trkpt>
      <trkpt lat="48.28826" lon="7.21365">
        <ele>591</ele>
        <time>2017-10-22T23:13:47Z</time>
      </trkpt>
      <trkpt lat="48.28835" lon="7.21571">
        <ele>587</ele>
        <time>2017-10-22T23:15:47Z</time>
      </trkpt>
      <trkpt lat="48.28803" lon="7.2164">
        <ele>579</ele>
        <time>2017-10-22T23:17:47Z</time>
      </trkpt>
      <trkpt lat="48.28801" lon="7.21706">
        <ele>580</ele>
        <time>2017-10-22T23:19:47Z</time>
      </trkpt>
      <trkpt lat="48.28782" lon="7.21818">
        <ele>576</ele>
        <time>2017-10-22T23:21:47Z</time>
      </trkpt>
      <trkpt lat="48.28756" lon="7.21854">
        <ele>580</ele>
        <time>2017-10-22T23:23:47Z</time>
      </trkpt>
      <trkpt lat="48.2866" lon="7.21837">
        <ele>584</ele>
        <time>2017-10-22T23:25:47Z</time>
      </trkpt>
      <trkpt lat="48.2867" lon="7.21949">
        <ele>604</ele>
        <time>2017-10-22T23:27:47Z</time>
      </trkpt>
      <trkpt lat="48.28657" lon="7.22062">
        <ele>622</ele>
        <time>2017-10-22T23:29:47Z</time>
      </trkpt>
      <trkpt lat="48.28622" lon="7.22081">
        <ele>620</ele>
        <time>2017-10-22T23:31:47Z</time>
      </trkpt>
      <trkpt lat="48.28492" lon="7.22051">
        <ele>609</ele>
        <time>2017-10-22T23:33:47Z</time>
      </trkpt>
      <trkpt lat="48.28397" lon="7.22152">
        <ele>602</ele>
        <time>2017-10-22T23:35:47Z</time>
      </trkpt>
      <trkpt lat="48.28339" lon="7.22154">
        <ele>606</ele>
        <time>2017-10-22T23:37:47Z</time>
      </trkpt>
      <trkpt lat="48.28253" lon="7.2206">
        <ele>606</ele>
        <time>2017-10-22T23:39:47Z</time>
      </trkpt>
      <trkpt lat="48.28022" lon="7.22094">
        <ele>604</ele>
        <time>2017-10-22T23:41:47Z</time>
      </trkpt>
      <trkpt lat="48.27836" lon="7.22617">
        <ele>571</ele>
        <time>2017-10-22T23:43:47Z</time>
      </trkpt>
      <trkpt lat="48.27925" lon="7.22708">
        <ele>556</ele>
        <time>2017-10-22T23:45:47Z</time>
      </trkpt>
      <trkpt lat="48.27941" lon="7.22748">
        <ele>551</ele>
        <time>2017-10-22T23:47:47Z</time>
      </trkpt>
      <trkpt lat="48.27951" lon="7.22778">
        <ele>551</ele>
        <time>2017-10-22T23:49:47Z</time>
      </trkpt>
      <trkpt lat="48.27982" lon="7.22853">
        <ele>547</ele>
        <time>2017-10-22T23:51:47Z</time>
      </trkpt>
      <trkpt lat="48.27979" lon="7.23107">
        <ele>539</ele>
        <time>2017-10-22T23:53:47Z</time>
      </trkpt>
      <trkpt lat="48.27982" lon="7.23158">
        <ele>533</ele>
        <time>2017-10-22T23:55:47Z</time>
      </trkpt>
      <trkpt lat="48.27949" lon="7.23207">
        <ele>542</ele>
        <time>2017-10-22T23:57:47Z</time>
      </trkpt>
      <trkpt lat="48.27934" lon="7.23257">
        <ele>544</ele>
        <time>2017-10-22T23:59:47Z</time>
      </trkpt>
      <trkpt lat="48.27988" lon="7.23334">
        <ele>529</ele>
        <time>2017-10-23T00:01:47Z</time>
      </trkpt>
      <trkpt lat="48.28051" lon="7.23338">
        <ele>506</ele>
        <time>2017-10-23T00:03:47Z</time>
      </trkpt>
      <trkpt lat="48.28073" lon="7.23489">
        <ele>522</ele>
        <time>2017-10-23T00:05:47Z</time>
      </trkpt>
      <trkpt lat="48.28104" lon="7.23486">
        <ele>511</ele>
        <time>2017-10-23T00:07:47Z</time>
      </trkpt>
      <trkpt lat="48.28112" lon="7.23442">
        <ele>498</ele>
        <time>2017-10-23T00:09:47Z</time>
      </trkpt>
      <trkpt lat="48.28134" lon="7.23347">
        <ele>474</ele>
        <time>2017-10-23T00:11:47Z</time>
      </trkpt>
      <trkpt lat="48.28107" lon="7.23212">
        <ele>483</ele>
        <time>2017-10-23T00:13:47Z</time>
      </trkpt>
      <trkpt lat="48.2824" lon="7.23284">
        <ele>451</ele>
        <time>2017-10-23T00:15:47Z</time>
      </trkpt>
      <trkpt lat="48.28278" lon="7.23231">
        <ele>458</ele>
        <time>2017-10-23T00:17:47Z</time>
      </trkpt>
      <trkpt lat="48.2837" lon="7.23253">
        <ele>436</ele>
        <time>2017-10-23T00:19:47Z</time>
      </trkpt>
      <trkpt lat="48.28413" lon="7.23132">
        <ele>438</ele>
        <time>2017-10-23T00:21:47Z</time>
      </trkpt>
      <trkpt lat="48.28399" lon="7.22965">
        <ele>445</ele>
        <time>2017-10-23T00:23:47Z</time>
      </trkpt>
      <trkpt lat="48.28482" lon="7.23068">
        <ele>437</ele>
        <time>2017-10-23T00:25:47Z</time>
      </trkpt>
      <trkpt lat="48.28519" lon="7.23218">
        <ele>409</ele>
        <time>2017-10-23T00:27:47Z</time>
      </trkpt>
      <trkpt lat="48.28588" lon="7.23278">
        <ele>402</ele>
        <time>2017-10-23T00:29:47Z</time>
      </trkpt>
      <trkpt lat="48.2867" lon="7.23193">
        <ele>403</ele>
        <time>2017-10-23T00:31:47Z</time>
      </trkpt>
      <trkpt lat="48.28766" lon="7.23122">
        <ele>400</ele>
        <time>2017-10-23T00:33:47Z</time>
      </trkpt>
      <trkpt lat="48.28839" lon="7.23072">
        <ele>389</ele>
        <time>2017-10-23T00:35:47Z</time>
      </trkpt>
      <trkpt lat="48.28872" lon="7.23175">
        <ele>384</ele>
        <time>2017-10-23T00:37:47Z</time>
      </trkpt>
      <trkpt lat="48.29033" lon="7.22961">
        <ele>390</ele>
        <time>2017-10-23T00:39:47Z</time>
      </trkpt>
      <trkpt lat="48.29176" lon="7.22652">
        <ele>391</ele>
        <time>2017-10-23T00:41:47Z</time>
      </trkpt>
      <trkpt lat="48.29258" lon="7.223">
        <ele>400</ele>
        <time>2017-10-23T00:43:47Z</time>
      </trkpt>
      <trkpt lat="48.29459" lon="7.21903">
        <ele>418</ele>
        <time>2017-10-23T00:45:47Z</time>
      </trkpt>
      <trkpt lat="48.29761" lon="7.21655">
        <ele>440</ele>
        <time>2017-10-23T00:47:47Z</time>
      </trkpt>
      <trkpt lat="48.29955" lon="7.21476">
        <ele>455</ele>
        <time>2017-10-23T00:49:47Z</time>
      </trkpt>
      <trkpt lat="48.30358" lon="7.21025">
        <ele>506</ele>
        <time>2017-10-23T00:51:47Z</time>
      </trkpt>
      <trkpt lat="48.30341" lon="7.21291">
        <ele>517</ele>
        <time>2017-10-23T00:53:47Z</time>
      </trkpt>
      <trkpt lat="48.30315" lon="7.21424">
        <ele>513</ele>
        <time>2017-10-23T00:55:47Z</time>
      </trkpt>
      <trkpt lat="48.3038" lon="7.21482">
        <ele>537</ele>
        <time>2017-10-23T00:57:47Z</time>
      </trkpt>
      <trkpt lat="48.30443" lon="7.21693">
        <ele>549</ele>
        <time>2017-10-23T00:59:47Z</time>
      </trkpt>
      <trkpt lat="48.3048" lon="7.21763">
        <ele>558</ele>
        <time>2017-10-23T01:01:47Z</time>
      </trkpt>
      <trkpt lat="48.30572" lon="7.21892">
        <ele>564</ele>
        <time>2017-10-23T01:03:47Z</time>
      </trkpt>
      <trkpt lat="48.3062" lon="7.21905">
        <ele>579</ele>
        <time>2017-10-23T01:05:47Z</time>
      </trkpt>
      <trkpt lat="48.30665" lon="7.21924">
        <ele>595</ele>
        <time>2017-10-23T01:07:47Z</time>
      </trkpt>
      <trkpt lat="48.30657" lon="7.22233">
        <ele>613</ele>
        <time>2017-10-23T01:09:47Z</time>
      </trkpt>
      <trkpt lat="48.30726" lon="7.22362">
        <ele>633</ele>
        <time>2017-10-23T01:11:47Z</time>
      </trkpt>
      <trkpt lat="48.30804" lon="7.22392">
        <ele>659</ele>
        <time>2017-10-23T01:13:47Z</time>
      </trkpt>
      <trkpt lat="48.30849" lon="7.22457">
        <ele>664</ele>
        <time>2017-10-23T01:15:47Z</time>
      </trkpt>
      <trkpt lat="48.30794" lon="7.22603">
        <ele>670</ele>
        <time>2017-10-23T01:17:47Z</time>
      </trkpt>
      <trkpt lat="48.30709" lon="7.22699">
        <ele>667</ele>
        <time>2017-10-23T01:19:47Z</time>
      </trkpt>
      <trkpt lat="48.30622" lon="7.23079">
        <ele>694</ele>
        <time>2017-10-23T01:21:47Z</time>
      </trkpt>
      <trkpt lat="48.30606" lon="7.23261">
        <ele>704</ele>
        <time>2017-10-23T01:23:47Z</time>
      </trkpt>
      <trkpt lat="48.30629" lon="7.23358">
        <ele>720</ele>
        <time>2017-10-23T01:25:47Z</time>
      </trkpt>
      <trkpt lat="48.30599" lon="7.23489">
        <ele>723</ele>
        <time>2017-10-23T01:27:47Z</time>
      </trkpt>
      <trkpt lat="48.30617" lon="7.2368">
        <ele>729</ele>
        <time>2017-10-23T01:29:47Z</time>
      </trkpt>
      <trkpt lat="48.3073" lon="7.23759">
        <ele>741</ele>
        <time>2017-10-23T01:31:47Z</time>
      </trkpt>
      <trkpt lat="48.30812" lon="7.2378">
        <ele>752</ele>
        <time>2017-10-23T01:33:47Z</time>
      </trkpt>
      <trkpt lat="48.30899" lon="7.23763">
        <ele>780</ele>
        <time>2017-10-23T01:35:47Z</time>
      </trkpt>
      <trkpt lat="48.31" lon="7.23892">
        <ele>775</ele>
        <time>2017-10-23T01:37:47Z</time>
      </trkpt>
      <trkpt lat="48.3105" lon="7.23871">
        <ele>774</ele>
        <time>2017-10-23T01:39:47Z</time>
      </trkpt>
      <trkpt lat="48.31174" lon="7.23652">
        <ele>779</ele>
        <time>2017-10-23T01:41:47Z</time>
      </trkpt>
      <trkpt lat="48.31348" lon="7.23592">
        <ele>758</ele>
        <time>2017-10-23T01:43:47Z</time>
      </trkpt>
      <trkpt lat="48.31308" lon="7.23424">
        <ele>752</ele>
        <time>2017-10-23T01:45:47Z</time>
      </trkpt>
      <trkpt lat="48.31287" lon="7.23338">
        <ele>744</ele>
        <time>2017-10-23T01:47:47Z</time>
      </trkpt>
      <trkpt lat="48.3126" lon="7.23283">
        <ele>738</ele>
        <time>2017-10-23T01:49:47Z</time>
      </trkpt>
      <trkpt lat="48.31193" lon="7.23227">
        <ele>734</ele>
        <time>2017-10-23T01:51:47Z</time>
      </trkpt>
      <trkpt lat="48.31158" lon="7.23178">
        <ele>726</ele>
        <time>2017-10-23T01:53:47Z</time>
      </trkpt>
      <trkpt lat="48.31127" lon="7.23126">
        <ele>722</ele>
        <time>2017-10-23T01:55:47Z</time>
      </trkpt>
      <trkpt lat="48.31082" lon="7.22933">
        <ele>701</ele>
        <time>2017-10-23T01:57:47Z</time>
      </trkpt>
      <trkpt lat="48.31026" lon="7.22859">
        <ele>700</ele>
        <time>2017-10-23T01:59:47Z</time>
      </trkpt>
      <trkpt lat="48.30984" lon="7.22607">
        <ele>676</ele>
        <time>2017-10-23T02:01:47Z</time>
      </trkpt>
      <trkpt lat="48.30911" lon="7.22501">
        <ele>672</ele>
        <time>2017-10-23T02:03:47Z</time>
      </trkpt>
      <trkpt lat="48.30914" lon="7.22358">
        <ele>697</ele>
        <time>2017-10-23T02:05:47Z</time>
      </trkpt>
      <trkpt lat="48.30914" lon="7.22302">
        <ele>712</ele>
        <time>2017-10-23T02:07:47Z</time>
      </trkpt>
      <trkpt lat="48.3091" lon="7.22246">
        <ele>723</ele>
        <time>2017-10-23T02:09:47Z</time>
      </trkpt>
      <trkpt lat="48.30906" lon="7.2219">
        <ele>732</ele>
        <time>2017-10-23T02:11:47Z</time>
      </trkpt>
      <trkpt lat="48.30904" lon="7.22079">
        <ele>748</ele>
        <time>2017-10-23T02:13:47Z</time>
      </trkpt>
      <trkpt lat="48.30981" lon="7.21839">
        <ele>770</ele>
        <time>2017-10-23T02:15:47Z</time>
      </trkpt>
      <trkpt lat="48.30983" lon="7.21948">
        <ele>776</ele>
        <time>2017-10-23T02:17:47Z</time>
      </trkpt>
      <trkpt lat="48.3105" lon="7.21628">
        <ele>800</ele>
        <time>2017-10-23T02:19:47Z</time>
      </trkpt>
      <trkpt lat="48.31024" lon="7.2157">
        <ele>800</ele>
        <time>2017-10-23T02:21:47Z</time>
      </trkpt>
      <trkpt lat="48.30903" lon="7.21445">
        <ele>805</ele>
        <time>2017-10-23T02:23:47Z</time>
      </trkpt>
      <trkpt lat="48.31023" lon="7.21429">
        <ele>829</ele>
        <time>2017-10-23T02:25:47Z</time>
      </trkpt>
      <trkpt lat="48.31051" lon="7.21278">
        <ele>832</ele>
        <time>2017-10-23T02:27:47Z</time>
      </trkpt>
      <trkpt lat="48.31066" lon="7.21163">
        <ele>827</ele>
        <time>2017-10-23T02:29:47Z</time>
      </trkpt>
      <trkpt lat="48.31103" lon="7.20845">
        <ele>803</ele>
        <time>2017-10-23T02:31:47Z</time>
      </trkpt>
      <trkpt lat="48.31091" lon="7.20656">
        <ele>813</ele>
        <time>2017-10-23T02:33:47Z</time>
      </trkpt>
      <trkpt lat="48.31046" lon="7.20536">
        <ele>822</ele>
        <time>2017-10-23T02:35:47Z</time>
      </trkpt>
      <trkpt lat="48.30983" lon="7.2045">
        <ele>826</ele>
        <time>2017-10-23T02:37:47Z</time>
      </trkpt>
      <trkpt lat="48.31" lon="7.2033">
        <ele>829</ele>
        <time>2017-10-23T02:39:47Z</time>
      </trkpt>
      <trkpt lat="48.30909" lon="7.19888">
        <ele>813</ele>
        <time>2017-10-23T02:41:47Z</time>
      </trkpt>
      <trkpt lat="48.30863" lon="7.19734">
        <ele>805</ele>
        <time>2017-10-23T02:43:47Z</time>
      </trkpt>
      <trkpt lat="48.30591" lon="7.19615">
        <ele>758</ele>
        <time>2017-10-23T02:45:47Z</time>
      </trkpt>
      <trkpt lat="48.30633" lon="7.19558">
        <ele>757</ele>
        <time>2017-10-23T02:47:47Z</time>
      </trkpt>
      <trkpt lat="48.30676" lon="7.19465">
        <ele>742</ele>
        <time>2017-10-23T02:49:47Z</time>
      </trkpt>
      <trkpt lat="48.30693" lon="7.19354">
        <ele>721</ele>
        <time>2017-10-23T02:51:47Z</time>
      </trkpt>
      <trkpt lat="48.30702" lon="7.19161">
        <ele>693</ele>
        <time>2017-10-23T02:53:47Z</time>
      </trkpt>
      <trkpt lat="48.30764" lon="7.18834">
        <ele>634</ele>
        <time>2017-10-23T02:55:47Z</time>
      </trkpt>
    </trkseg>
  </trk>
</gpx>